Time;durP1;ratioP1;P1;durP2;ratioP2;P2;SDS_P1;SDS_P2;PMS_P1;PMS_P2;Temp;Humidity;BMP_temperature;BMP_pressure;BME280_temperature;BME280_humidity;BME280_pressure;Samples;Min_cycle;Max_cycle;Signal;HPM_P1;HPM_P2
2024/01/10 00:02:01;;;;;;;5.07;1.90;;;-0.10;62.90;;;;;;4993819;28;20030;-78
2024/01/10 00:04:26;;;;;;;4.90;1.77;;;-0.20;62.80;;;;;;4993684;28;20026;-79
2024/01/10 00:06:52;;;;;;;7.25;1.83;;;-0.30;63.00;;;;;;4994589;28;20476;-79
2024/01/10 00:09:18;;;;;;;3.70;1.75;;;-0.30;63.30;;;;;;4977233;28;20037;-79
2024/01/10 00:11:44;;;;;;;4.85;2.03;;;-0.30;63.90;;;;;;4995055;28;20035;-79
2024/01/10 00:14:10;;;;;;;5.75;2.35;;;-0.20;63.80;;;;;;4993960;28;20035;-79
2024/01/10 00:16:36;;;;;;;4.05;1.98;;;-0.20;63.90;;;;;;4993726;28;20026;-79
2024/01/10 00:19:02;;;;;;;5.40;2.17;;;-0.20;64.20;;;;;;4993884;28;20058;-79
2024/01/10 00:21:28;;;;;;;4.60;2.03;;;-0.30;64.70;;;;;;4994393;28;20035;-79
2024/01/10 00:23:54;;;;;;;4.90;1.85;;;-0.30;64.50;;;;;;4995305;28;20385;-79
2024/01/10 00:26:19;;;;;;;4.28;1.80;;;-0.30;64.70;;;;;;4995672;28;20030;-80
2024/01/10 00:28:48;;;;;;;5.93;2.22;;;-0.20;64.80;;;;;;4978182;28;20034;-75
2024/01/10 00:31:14;;;;;;;4.05;2.00;;;-0.20;64.40;;;;;;4994781;28;20050;-79
2024/01/10 00:33:40;;;;;;;4.18;2.08;;;-0.10;64.50;;;;;;4977735;28;20364;-77
2024/01/10 00:36:06;;;;;;;4.75;2.20;;;-0.20;64.80;;;;;;4993350;28;20035;-78
2024/01/10 00:38:32;;;;;;;6.45;2.17;;;-0.10;64.90;;;;;;4993573;28;20030;-79
2024/01/10 00:40:58;;;;;;;4.05;1.85;;;-0.10;65.80;;;;;;4994729;28;20041;-78
2024/01/10 00:43:24;;;;;;;4.00;2.28;;;-0.20;64.70;;;;;;4993043;28;20034;-78
2024/01/10 00:45:50;;;;;;;4.35;2.28;;;-0.30;65.30;;;;;;4993149;28;20038;-78
2024/01/10 00:48:17;;;;;;;5.53;2.33;;;-0.30;65.80;;;;;;4993580;28;20070;-78
2024/01/10 00:50:44;;;;;;;4.70;2.05;;;-0.40;65.70;;;;;;4977722;28;20097;-78
2024/01/10 00:53:09;;;;;;;5.65;2.35;;;-0.50;66.20;;;;;;4994008;28;20038;-78
2024/01/10 00:55:35;;;;;;;4.20;2.00;;;-0.50;66.40;;;;;;4992799;28;20469;-78
2024/01/10 00:58:01;;;;;;;4.03;1.95;;;-0.80;66.60;;;;;;4994128;28;20042;-78
2024/01/10 01:00:27;;;;;;;7.47;1.98;;;-0.80;67.20;;;;;;4993744;28;20058;-78
2024/01/10 01:02:52;;;;;;;3.47;1.73;;;-0.80;67.20;;;;;;4992736;28;20137;-78
2024/01/10 01:05:18;;;;;;;4.25;2.22;;;-0.70;67.10;;;;;;4992623;28;20038;-78
2024/01/10 01:07:44;;;;;;;4.32;2.00;;;-0.50;67.00;;;;;;4993976;28;20472;-78
2024/01/10 01:10:10;;;;;;;5.10;2.58;;;-0.60;66.60;;;;;;4994276;28;20026;-77
2024/01/10 01:12:35;;;;;;;5.40;2.70;;;-0.70;66.80;;;;;;4992549;28;20392;-78
2024/01/10 01:15:01;;;;;;;4.38;2.10;;;-0.60;67.40;;;;;;4993798;28;20041;-78
2024/01/10 01:17:27;;;;;;;6.00;2.30;;;-0.60;68.00;;;;;;4992519;28;20031;-78
2024/01/10 01:19:52;;;;;;;3.95;2.47;;;-0.60;67.70;;;;;;4992047;28;20523;-78
2024/01/10 01:22:18;;;;;;;4.45;2.53;;;-0.70;67.60;;;;;;4976217;28;20052;-78
2024/01/10 01:24:44;;;;;;;4.75;2.08;;;-0.60;67.60;;;;;;4992615;28;20026;-77
2024/01/10 01:27:09;;;;;;;5.88;2.35;;;-0.60;67.60;;;;;;4993605;28;20106;-78
2024/01/10 01:29:35;;;;;;;5.45;2.40;;;-0.60;67.50;;;;;;4993715;28;20178;-78
2024/01/10 01:32:01;;;;;;;4.38;2.10;;;-0.60;67.60;;;;;;4992117;28;20066;-78
2024/01/10 01:34:26;;;;;;;5.90;2.38;;;-0.50;67.70;;;;;;4993061;28;20365;-79
2024/01/10 01:36:52;;;;;;;5.90;2.10;;;-0.40;68.40;;;;;;4992938;28;20433;-78
2024/01/10 01:39:20;;;;;;;4.20;2.00;;;-0.30;67.80;;;;;;4992207;28;20140;-79
2024/01/10 01:41:47;;;;;;;5.20;2.13;;;-0.30;67.60;;;;;;4975011;28;20081;-79
2024/01/10 01:44:14;;;;;;;5.68;2.72;;;-0.30;67.60;;;;;;4992505;28;20026;-79
2024/01/10 01:46:40;;;;;;;4.85;2.55;;;-0.40;67.30;;;;;;4993559;28;20114;-79
2024/01/10 01:49:06;;;;;;;3.15;1.60;;;-0.50;67.90;;;;;;4993258;28;20384;-78
2024/01/10 01:51:36;;;;;;;4.70;2.38;;;-0.50;72.00;;;;;;4993542;28;20031;-79
2024/01/10 01:54:06;;;;;;;5.63;2.67;;;-0.60;69.10;;;;;;4993470;28;20031;-79
2024/01/10 01:56:31;;;;;;;4.07;2.25;;;-0.70;69.20;;;;;;4993170;28;20045;-79
2024/01/10 01:58:57;;;;;;;4.55;2.10;;;-0.70;69.00;;;;;;4993312;28;20054;-79
2024/01/10 02:01:23;;;;;;;5.80;2.65;;;-0.80;68.80;;;;;;4991747;28;20033;-78
2024/01/10 02:03:49;;;;;;;4.15;2.15;;;-0.80;68.90;;;;;;4993552;28;20034;-78
2024/01/10 02:06:15;;;;;;;5.82;2.15;;;-0.60;68.90;;;;;;4993320;28;20042;-78
2024/01/10 02:08:40;;;;;;;5.43;2.50;;;-0.50;70.10;;;;;;4993352;28;20058;-78
2024/01/10 02:11:06;;;;;;;5.68;2.30;;;-0.50;68.70;;;;;;4975788;28;20031;-79
2024/01/10 02:13:32;;;;;;;5.55;2.58;;;-0.60;68.70;;;;;;4993370;28;20101;-79
2024/01/10 02:15:59;;;;;;;4.28;2.22;;;-0.80;68.40;;;;;;4993168;28;20122;-78
2024/01/10 02:18:25;;;;;;;4.50;2.53;;;-1.00;68.90;;;;;;4993432;28;20061;-79
2024/01/10 02:20:52;;;;;;;4.28;2.00;;;-0.90;69.90;;;;;;4991754;28;20455;-79
2024/01/10 02:23:18;;;;;;;5.15;2.58;;;-1.00;69.90;;;;;;4992592;28;20038;-79
2024/01/10 02:25:44;;;;;;;7.05;2.30;;;-1.10;69.30;;;;;;4992847;28;20558;-80
2024/01/10 02:28:10;;;;;;;5.72;2.67;;;-1.40;69.90;;;;;;4993830;28;20038;-78
2024/01/10 02:30:36;;;;;;;5.82;2.40;;;-1.40;70.60;;;;;;4975738;28;20035;-78
2024/01/10 02:33:02;;;;;;;8.13;2.60;;;-1.30;70.80;;;;;;4992862;28;20038;-77
2024/01/10 02:35:28;;;;;;;5.93;2.90;;;-1.20;72.40;;;;;;4992824;28;20133;-79
2024/01/10 02:37:54;;;;;;;3.92;2.60;;;-1.10;72.40;;;;;;4991397;28;20037;-80
2024/01/10 02:40:20;;;;;;;5.68;2.33;;;-1.00;71.30;;;;;;4976004;28;20031;-78
2024/01/10 02:42:46;;;;;;;4.45;2.30;;;-1.10;71.40;;;;;;4991883;28;20476;-79
2024/01/10 02:45:13;;;;;;;6.10;2.42;;;-1.00;73.50;;;;;;4993096;28;20038;-79
2024/01/10 02:47:38;;;;;;;5.43;2.50;;;-0.90;72.20;;;;;;4975633;28;20054;-78
2024/01/10 02:50:05;;;;;;;5.78;2.60;;;-1.10;71.50;;;;;;4991876;28;20473;-79
2024/01/10 02:52:31;;;;;;;6.05;3.20;;;-1.20;72.10;;;;;;4991625;28;20452;-79
2024/01/10 02:54:56;;;;;;;4.40;2.08;;;-1.10;72.60;;;;;;4979548;28;20035;-79
2024/01/10 02:57:22;;;;;;;4.47;2.38;;;-1.10;72.10;;;;;;4978972;28;20033;-79
2024/01/10 02:59:48;;;;;;;4.97;2.70;;;-1.10;72.50;;;;;;4996159;28;20030;-79
2024/01/10 03:02:13;;;;;;;5.05;2.50;;;-1.20;72.10;;;;;;4996495;28;20038;-79
2024/01/10 03:04:40;;;;;;;8.70;2.90;;;-1.30;72.20;;;;;;4996361;28;20456;-78
2024/01/10 03:07:05;;;;;;;4.15;2.08;;;-1.20;72.40;;;;;;4978990;28;20177;-79
2024/01/10 03:09:31;;;;;;;5.28;2.70;;;-1.10;72.50;;;;;;4978792;28;20114;-79
2024/01/10 03:11:56;;;;;;;5.95;2.78;;;-1.00;72.10;;;;;;4994708;28;20038;-79
2024/01/10 03:14:22;;;;;;;4.85;2.30;;;-0.80;72.00;;;;;;4995054;28;20473;-80
2024/01/10 03:16:48;;;;;;;4.45;2.45;;;-0.80;71.50;;;;;;4996117;28;20113;-79
2024/01/10 03:19:14;;;;;;;5.90;2.85;;;-0.70;71.30;;;;;;4996939;28;20046;-79
2024/01/10 03:21:39;;;;;;;5.50;2.53;;;-0.60;71.30;;;;;;4996842;28;20030;-79
2024/01/10 03:24:05;;;;;;;6.60;2.78;;;-0.60;70.90;;;;;;4996237;28;20054;-79
2024/01/10 03:26:31;;;;;;;8.35;3.03;;;-0.60;71.10;;;;;;4978895;28;20035;-79
2024/01/10 03:28:57;;;;;;;6.53;3.15;;;-0.60;72.10;;;;;;4994975;28;20034;-79
2024/01/10 03:31:23;;;;;;;7.50;2.88;;;-0.80;71.50;;;;;;4994432;28;20041;-78
2024/01/10 03:33:49;;;;;;;6.25;2.88;;;-0.70;71.60;;;;;;4994276;28;20038;-80
2024/01/10 03:36:18;;;;;;;6.00;2.58;;;-0.90;71.40;;;;;;4996247;28;20039;-80
2024/01/10 03:38:44;;;;;;;6.18;3.03;;;-0.90;71.50;;;;;;4996054;28;20056;-79
2024/01/10 03:41:14;;;;;;;6.80;2.65;;;-0.80;71.50;;;;;;4994398;28;20121;-78
2024/01/10 03:43:39;;;;;;;6.32;3.00;;;-0.70;71.40;;;;;;4995659;28;20026;-78
2024/01/10 03:46:05;;;;;;;7.43;2.85;;;-0.80;71.30;;;;;;4994663;28;20053;-78
2024/01/10 03:48:31;;;;;;;7.15;3.00;;;-1.00;71.60;;;;;;4978092;28;20492;-79
2024/01/10 03:50:57;;;;;;;6.90;3.00;;;-1.20;72.00;;;;;;4994115;28;20038;-78
2024/01/10 03:53:22;;;;;;;5.10;2.70;;;-1.30;72.60;;;;;;4994072;28;20038;-79
2024/01/10 03:55:48;;;;;;;5.80;2.88;;;-1.40;73.10;;;;;;4995779;28;20122;-79
2024/01/10 03:58:14;;;;;;;6.65;2.92;;;-1.60;73.60;;;;;;4994292;28;20089;-78
2024/01/10 04:00:39;;;;;;;5.00;2.60;;;-1.70;74.80;;;;;;4994143;28;20058;-78
2024/01/10 04:03:05;;;;;;;5.90;2.90;;;-1.70;74.70;;;;;;4995224;28;20072;-78
2024/01/10 04:05:31;;;;;;;6.40;3.30;;;-1.60;74.30;;;;;;4994622;28;20380;-78
2024/01/10 04:07:56;;;;;;;5.95;3.03;;;-1.60;74.60;;;;;;4995164;28;20373;-77
2024/01/10 04:10:23;;;;;;;7.57;3.03;;;-1.60;74.70;;;;;;4994469;28;20075;-77
2024/01/10 04:12:49;;;;;;;6.55;2.90;;;-1.80;74.70;;;;;;4994694;28;20612;-78
2024/01/10 04:15:15;;;;;;;7.78;2.88;;;-1.80;75.00;;;;;;4993693;28;20026;-77
2024/01/10 04:17:41;;;;;;;5.50;2.70;;;-1.80;75.00;;;;;;4994982;28;20037;-78
2024/01/10 04:20:07;;;;;;;6.43;2.97;;;-1.70;76.60;;;;;;4995393;28;20046;-78
2024/01/10 04:22:33;;;;;;;6.13;2.85;;;-1.60;75.60;;;;;;4993510;28;20105;-78
2024/01/10 04:25:00;;;;;;;6.72;2.92;;;-1.70;75.10;;;;;;4993523;28;20034;-77
2024/01/10 04:27:26;;;;;;;6.45;2.83;;;-1.90;75.20;;;;;;4995054;28;20117;-79
2024/01/10 04:29:52;;;;;;;5.45;2.63;;;-2.00;76.10;;;;;;4995179;28;20072;-80
2024/01/10 04:32:18;;;;;;;5.60;2.60;;;-1.90;76.60;;;;;;4993619;28;20066;-80
2024/01/10 04:34:43;;;;;;;5.63;3.00;;;-2.10;77.20;;;;;;4994609;28;20381;-80
2024/01/10 04:37:09;;;;;;;6.35;2.85;;;-2.20;77.70;;;;;;4993240;28;20035;-80
2024/01/10 04:39:37;;;;;;;5.78;2.75;;;-2.20;77.60;;;;;;4993405;28;20031;-80
2024/01/10 04:42:04;;;;;;;6.30;3.15;;;-2.30;77.50;;;;;;4992873;28;20034;-79
2024/01/10 04:44:29;;;;;;;6.22;2.95;;;-2.50;77.90;;;;;;4977541;28;20069;-79
2024/01/10 04:46:55;;;;;;;5.85;3.00;;;-2.60;79.10;;;;;;4993393;28;20402;-80
2024/01/10 04:49:21;;;;;;;7.03;3.00;;;-2.40;82.20;;;;;;4994018;28;20058;-79
2024/01/10 04:51:47;;;;;;;6.50;3.03;;;-2.20;80.90;;;;;;4994154;28;20058;-79
2024/01/10 04:54:13;;;;;;;5.53;2.50;;;-2.10;80.20;;;;;;4993373;28;20121;-79
2024/01/10 04:56:39;;;;;;;7.20;3.38;;;-2.00;82.90;;;;;;4976785;28;20506;-79
2024/01/10 04:59:05;;;;;;;6.97;3.42;;;-2.00;79.40;;;;;;4993387;28;20031;-81
2024/01/10 05:01:31;;;;;;;6.40;3.20;;;-2.30;79.20;;;;;;4994256;28;20038;-79
2024/01/10 05:03:57;;;;;;;6.20;3.28;;;-2.40;79.40;;;;;;4992785;28;20038;-80
2024/01/10 05:06:23;;;;;;;6.45;3.38;;;-2.40;80.00;;;;;;4992623;28;20397;-80
2024/01/10 05:08:49;;;;;;;6.93;3.13;;;-2.40;79.70;;;;;;4992912;28;20031;-80
2024/01/10 05:11:15;;;;;;;7.35;2.95;;;-2.50;79.30;;;;;;4992614;28;20088;-79
2024/01/10 05:13:44;;;;;;;6.13;3.47;;;-2.50;79.70;;;;;;4993874;28;20038;-79
2024/01/10 05:16:12;;;;;;;7.90;2.78;;;-2.40;79.60;;;;;;4993900;28;20030;-80
2024/01/10 05:18:38;;;;;;;12.55;3.90;;;-2.30;79.60;;;;;;4992398;28;20511;-79
2024/01/10 05:21:04;;;;;;;5.45;3.28;;;-2.40;78.80;;;;;;4993878;28;20117;-79
2024/01/10 05:23:30;;;;;;;9.23;3.45;;;-2.50;79.20;;;;;;4994058;28;20464;-78
2024/01/10 05:25:56;;;;;;;6.75;3.45;;;-2.50;79.20;;;;;;4992592;28;20031;-79
2024/01/10 05:28:21;;;;;;;8.77;3.55;;;-2.50;80.50;;;;;;4992071;28;20110;-79
2024/01/10 05:30:47;;;;;;;8.00;3.17;;;-2.30;79.50;;;;;;4992118;28;20062;-79
2024/01/10 05:33:13;;;;;;;7.78;3.33;;;-2.30;78.80;;;;;;4975992;28;20477;-78
2024/01/10 05:35:39;;;;;;;7.13;3.35;;;-2.30;78.50;;;;;;4993844;28;20030;-78
2024/01/10 05:38:05;;;;;;;6.55;3.05;;;-2.40;78.70;;;;;;4993646;28;20022;-78
2024/01/10 05:40:31;;;;;;;7.50;3.42;;;-2.40;79.00;;;;;;4992725;28;20492;-78
2024/01/10 05:42:59;;;;;;;7.15;3.58;;;-2.50;80.10;;;;;;4992069;28;20033;-78
2024/01/10 05:45:25;;;;;;;7.25;3.63;;;-2.50;79.20;;;;;;4993257;28;20018;-78
2024/01/10 05:47:51;;;;;;;5.75;3.03;;;-2.50;79.70;;;;;;4976576;28;20204;-78
2024/01/10 05:50:17;;;;;;;6.65;3.10;;;-2.40;79.80;;;;;;4976212;28;20058;-78
2024/01/10 05:52:43;;;;;;;8.00;3.67;;;-2.30;79.20;;;;;;4993146;28;20043;-78
2024/01/10 05:55:09;;;;;;;6.82;3.55;;;-2.20;78.40;;;;;;4992224;28;20433;-79
2024/01/10 05:57:36;;;;;;;6.35;3.17;;;-2.20;78.10;;;;;;4993437;28;20035;-78
2024/01/10 06:00:03;;;;;;;7.45;3.13;;;-2.20;78.10;;;;;;4992317;28;20117;-79
2024/01/10 06:02:29;;;;;;;6.57;3.10;;;-2.10;78.00;;;;;;4993602;28;20039;-79
2024/01/10 06:04:54;;;;;;;7.82;3.30;;;-2.00;78.00;;;;;;4993108;28;20343;-79
2024/01/10 06:07:23;;;;;;;8.05;4.13;;;-2.00;77.60;;;;;;4993410;28;20031;-78
2024/01/10 06:09:49;;;;;;;8.55;4.00;;;-1.90;77.70;;;;;;4992439;28;20164;-79
2024/01/10 06:12:14;;;;;;;6.93;3.55;;;-1.90;77.10;;;;;;4992453;28;20042;-78
2024/01/10 06:14:40;;;;;;;7.82;3.70;;;-2.10;77.00;;;;;;4992951;28;20070;-78
2024/01/10 06:17:06;;;;;;;9.13;3.65;;;-2.40;77.80;;;;;;4993186;28;20034;-79
2024/01/10 06:19:32;;;;;;;9.25;3.88;;;-2.50;78.20;;;;;;4975823;28;20445;-78
2024/01/10 06:21:59;;;;;;;8.50;4.13;;;-2.60;79.10;;;;;;4977546;28;20137;-78
2024/01/10 06:24:25;;;;;;;8.07;4.22;;;-2.60;78.90;;;;;;4994752;28;20376;-79
2024/01/10 06:26:51;;;;;;;7.53;3.85;;;-2.50;79.20;;;;;;4994863;28;20034;-79
2024/01/10 06:29:18;;;;;;;8.98;5.03;;;-2.40;79.00;;;;;;4995149;28;20026;-80
2024/01/10 06:31:43;;;;;;;8.70;3.92;;;-2.30;78.70;;;;;;4997991;28;20088;-77
2024/01/10 06:34:09;;;;;;;8.90;3.95;;;-2.20;78.20;;;;;;4995847;28;20053;-77
2024/01/10 06:36:35;;;;;;;7.38;3.60;;;-2.30;78.10;;;;;;4996824;28;20026;-77
2024/01/10 06:39:01;;;;;;;7.20;3.53;;;-2.30;78.60;;;;;;4997313;28;20058;-77
2024/01/10 06:41:27;;;;;;;9.18;4.30;;;-2.10;78.60;;;;;;4997585;28;20061;-82
2024/01/10 06:43:53;;;;;;;8.95;4.18;;;-2.20;77.60;;;;;;4981647;28;20125;-77
2024/01/10 06:46:20;;;;;;;12.30;4.45;;;-2.20;77.80;;;;;;4997271;28;20100;-79
2024/01/10 06:48:46;;;;;;;8.25;4.20;;;-2.20;77.60;;;;;;4996445;28;20038;-78
2024/01/10 06:51:16;;;;;;;8.50;4.03;;;-2.30;78.40;;;;;;4995516;28;20042;-78
2024/01/10 06:53:42;;;;;;;8.75;4.47;;;-2.30;78.90;;;;;;4995148;28;20038;-78
2024/01/10 06:56:09;;;;;;;9.93;4.82;;;-2.30;78.00;;;;;;4996615;28;20444;-78
2024/01/10 06:58:35;;;;;;;9.48;4.40;;;-2.40;77.90;;;;;;4995703;28;20081;-78
2024/01/10 07:01:00;;;;;;;9.90;4.22;;;-2.30;78.20;;;;;;4995061;28;20026;-78
2024/01/10 07:03:27;;;;;;;10.32;4.45;;;-2.40;77.70;;;;;;4979028;28;20381;-79
2024/01/10 07:05:52;;;;;;;10.40;4.72;;;-2.30;77.80;;;;;;4996183;28;20022;-79
2024/01/10 07:08:18;;;;;;;8.30;4.40;;;-2.00;79.70;;;;;;4994758;28;20041;-78
2024/01/10 07:10:44;;;;;;;11.63;4.57;;;-1.90;78.10;;;;;;4994994;28;20030;-77
2024/01/10 07:13:10;;;;;;;9.00;4.18;;;-1.80;78.30;;;;;;4995511;28;20053;-75
2024/01/10 07:15:37;;;;;;;10.25;4.88;;;-1.80;78.60;;;;;;4995268;28;20058;-71
2024/01/10 07:18:03;;;;;;;9.95;4.57;;;-1.70;79.60;;;;;;4995746;28;20034;-75
2024/01/10 07:20:28;;;;;;;9.88;4.68;;;-1.60;78.60;;;;;;4995847;28;20048;-72
2024/01/10 07:22:54;;;;;;;12.23;5.75;;;-1.50;80.00;;;;;;4994838;28;20045;-72
2024/01/10 07:25:22;;;;;;;9.18;4.22;;;-1.50;77.30;;;;;;4996064;28;20468;-71
2024/01/10 07:27:47;;;;;;;11.60;4.97;;;-1.50;77.00;;;;;;4996046;28;20081;-71
2024/01/10 07:30:13;;;;;;;10.00;4.20;;;-1.60;76.00;;;;;;4978155;28;20030;-72
2024/01/10 07:32:45;;;;;;;12.50;5.05;;;-1.60;77.40;;;;;;4994319;28;20516;-73
2024/01/10 07:35:13;;;;;;;9.27;4.95;;;-1.60;76.10;;;;;;4994394;28;20030;-72
2024/01/10 07:37:40;;;;;;;9.85;4.15;;;-1.60;75.30;;;;;;4995730;28;20060;-72
2024/01/10 07:40:08;;;;;;;8.65;4.68;;;-1.60;77.50;;;;;;4995620;28;20027;-70
2024/01/10 07:42:34;;;;;;;10.95;4.93;;;-1.40;78.10;;;;;;4995705;28;20053;-71
2024/01/10 07:45:04;;;;;;;9.55;4.07;;;-1.30;76.70;;;;;;4995451;28;20400;-71
2024/01/10 07:47:37;;;;;;;10.40;5.15;;;-1.30;77.30;;;;;;4979017;28;20054;-74
2024/01/10 07:50:04;;;;;;;11.25;5.00;;;-1.10;77.10;;;;;;4995548;28;20169;-75
2024/01/10 07:52:30;;;;;;;9.70;4.72;;;-1.10;78.10;;;;;;4995373;28;20038;-73
2024/01/10 07:54:55;;;;;;;11.23;5.80;;;-1.10;74.70;;;;;;4994471;28;20022;-74
2024/01/10 07:57:21;;;;;;;10.30;4.65;;;-1.00;75.60;;;;;;4995053;28;20113;-74
2024/01/10 07:59:47;;;;;;;14.05;6.63;;;-0.90;75.10;;;;;;4995138;28;20533;-74
2024/01/10 08:02:12;;;;;;;9.50;5.18;;;-0.80;76.30;;;;;;4995512;28;20481;-75
2024/01/10 08:04:38;;;;;;;11.07;4.38;;;-0.70;76.50;;;;;;4993972;28;20034;-75
2024/01/10 08:07:04;;;;;;;12.70;5.22;;;-0.50;79.20;;;;;;4994718;28;20457;-73
2024/01/10 08:09:30;;;;;;;11.90;5.63;;;-0.20;78.50;;;;;;4993385;28;20040;-73
2024/01/10 08:11:55;;;;;;;11.15;5.65;;;0.00;79.30;;;;;;4995394;28;20046;-75
2024/01/10 08:14:21;;;;;;;18.40;6.60;;;0.10;77.00;;;;;;4995051;28;20114;-74
2024/01/10 08:16:46;;;;;;;10.65;5.70;;;-0.10;71.80;;;;;;4994910;28;20046;-74
2024/01/10 08:19:12;;;;;;;11.27;5.40;;;-0.10;73.50;;;;;;4994815;28;20050;-74
2024/01/10 08:21:38;;;;;;;13.52;6.55;;;0.50;90.80;;;;;;4994472;28;20069;-73
2024/01/10 08:24:04;;;;;;;16.40;6.78;;;0.80;79.30;;;;;;4994978;28;20050;-74
2024/01/10 08:26:31;;;;;;;12.88;5.45;;;0.70;73.80;;;;;;4993105;28;20511;-74
2024/01/10 08:28:57;;;;;;;12.68;7.07;;;0.50;73.40;;;;;;4977755;28;20101;-74
2024/01/10 08:31:23;;;;;;;16.27;7.57;;;0.40;72.90;;;;;;4993766;28;20027;-74
2024/01/10 08:33:49;;;;;;;14.93;7.50;;;0.40;72.30;;;;;;4993501;28;20469;-74
2024/01/10 08:36:15;;;;;;;16.13;6.90;;;0.10;69.80;;;;;;4994461;28;20030;-73
2024/01/10 08:38:41;;;;;;;11.73;6.18;;;-0.20;70.40;;;;;;4976966;28;20061;-73
2024/01/10 08:41:11;;;;;;;13.90;6.65;;;-0.30;72.20;;;;;;4994591;28;20030;-73
2024/01/10 08:43:37;;;;;;;15.88;6.68;;;-0.40;71.70;;;;;;4993984;28;20042;-72
2024/01/10 08:46:03;;;;;;;17.27;8.15;;;-0.60;70.60;;;;;;4994016;28;20077;-73
2024/01/10 08:48:29;;;;;;;12.98;6.97;;;-0.80;70.80;;;;;;4992946;28;20031;-73
2024/01/10 08:50:56;;;;;;;17.33;6.88;;;-0.90;71.20;;;;;;4992210;28;20038;-73
2024/01/10 08:53:22;;;;;;;17.70;6.93;;;-1.00;71.20;;;;;;4992849;28;20160;-73
2024/01/10 08:55:48;;;;;;;17.27;7.05;;;-1.00;71.00;;;;;;4976905;28;20034;-73
2024/01/10 08:58:14;;;;;;;14.38;6.65;;;-1.20;72.10;;;;;;4995112;28;20089;-73
2024/01/10 09:00:39;;;;;;;14.55;7.65;;;-1.10;72.70;;;;;;4993742;28;20038;-72
2024/01/10 09:03:05;;;;;;;14.68;7.32;;;-1.10;71.70;;;;;;4996995;28;20054;-70
2024/01/10 09:05:31;;;;;;;13.65;6.93;;;-1.00;72.90;;;;;;4998125;28;20049;-70
2024/01/10 09:07:56;;;;;;;15.85;7.57;;;-0.90;72.60;;;;;;4998621;28;20037;-70
2024/01/10 09:10:22;;;;;;;14.57;7.00;;;-0.80;71.00;;;;;;4997129;28;20030;-72
2024/01/10 09:12:48;;;;;;;15.30;7.05;;;-0.70;72.70;;;;;;4993974;28;20045;-70
2024/01/10 09:15:15;;;;;;;16.42;7.78;;;-0.60;70.90;;;;;;4994160;28;20035;-71
2024/01/10 09:17:44;;;;;;;16.10;7.70;;;-0.70;69.80;;;;;;4992472;28;20472;-70
2024/01/10 09:20:13;;;;;;;15.55;7.38;;;-0.90;70.40;;;;;;4994371;28;20089;-70
2024/01/10 09:22:39;;;;;;;16.33;7.80;;;-0.80;71.10;;;;;;4993724;28;20026;-71
2024/01/10 09:25:05;;;;;;;13.85;6.90;;;-0.70;70.90;;;;;;4993696;28;20031;-71
2024/01/10 09:27:35;;;;;;;17.88;7.50;;;-0.50;70.30;;;;;;4994080;28;20057;-71
2024/01/10 09:30:10;;;;;;;14.95;7.55;;;-0.40;71.50;;;;;;4992165;28;20465;-75
2024/01/10 09:32:36;;;;;;;16.27;6.93;;;-0.20;69.80;;;;;;4992400;28;20069;-74
2024/01/10 09:35:02;;;;;;;19.80;7.32;;;-0.10;69.30;;;;;;4992845;28;20084;-73
2024/01/10 09:37:28;;;;;;;13.45;7.00;;;0.00;69.80;;;;;;4993601;28;20038;-73
2024/01/10 09:39:53;;;;;;;13.32;6.55;;;0.00;68.40;;;;;;4992068;28;20026;-74
2024/01/10 09:42:25;;;;;;;16.27;7.40;;;0.10;69.70;;;;;;4993922;28;20118;-73
2024/01/10 09:44:53;;;;;;;12.98;6.90;;;0.30;69.20;;;;;;4992759;28;20045;-74
2024/01/10 09:47:20;;;;;;;14.13;7.18;;;0.50;69.00;;;;;;4991910;28;20364;-75
2024/01/10 09:49:47;;;;;;;16.38;7.30;;;0.60;67.40;;;;;;4992078;28;20453;-74
2024/01/10 09:52:27;;;;;;;15.48;7.65;;;0.60;68.10;;;;;;4993263;28;20113;-74
2024/01/10 09:54:58;;;;;;;17.35;7.88;;;0.80;67.80;;;;;;4992264;28;20074;-74
2024/01/10 09:57:27;;;;;;;14.88;7.28;;;0.90;67.40;;;;;;4993301;28;20385;-74
2024/01/10 09:59:56;;;;;;;14.02;7.15;;;1.00;67.40;;;;;;4993423;28;20026;-71
2024/01/10 10:02:23;;;;;;;16.52;7.85;;;1.10;67.20;;;;;;4993087;28;20054;-72
2024/01/10 10:05:04;;;;;;;17.05;8.63;;;1.30;65.70;;;;;;4995469;28;20038;-72
2024/01/10 10:07:30;;;;;;;13.68;6.85;;;1.30;65.10;;;;;;4997681;28;20041;-72
2024/01/10 10:09:58;;;;;;;14.45;7.65;;;1.50;66.20;;;;;;4997187;28;20357;-75
2024/01/10 10:12:43;;;;;;;15.02;7.57;;;1.60;64.90;;;;;;4997125;28;20531;-74
2024/01/10 10:15:22;;;;;;;14.65;7.50;;;1.70;63.30;;;;;;4996104;28;20042;-75
2024/01/10 10:17:49;;;;;;;13.00;7.68;;;1.80;65.10;;;;;;4995976;28;20042;-74
2024/01/10 10:20:20;;;;;;;13.85;7.38;;;1.90;63.50;;;;;;4996668;28;20050;-75
2024/01/10 10:23:15;;;;;;;15.95;7.45;;;1.90;63.10;;;;;;4996243;28;20036;-75
2024/01/10 10:25:45;;;;;;;14.73;8.18;;;1.80;62.00;;;;;;4995199;28;20069;-74
2024/01/10 10:28:11;;;;;;;13.18;7.00;;;1.70;61.90;;;;;;4997326;28;20046;-77
2024/01/10 10:30:36;;;;;;;14.77;7.70;;;1.80;62.60;;;;;;4997234;28;20094;-76
2024/01/10 10:33:03;;;;;;;16.10;7.50;;;1.90;62.30;;;;;;4996661;28;20073;-75
2024/01/10 10:35:29;;;;;;;14.63;7.10;;;2.00;62.70;;;;;;4997384;28;20031;-76
2024/01/10 10:37:54;;;;;;;17.25;8.30;;;2.10;61.00;;;;;;4978960;28;20134;-76
2024/01/10 10:40:21;;;;;;;14.45;7.63;;;2.10;60.70;;;;;;4995485;28;20081;-76
2024/01/10 10:42:56;;;;;;;16.20;7.95;;;2.10;60.50;;;;;;4996947;28;20093;-75
2024/01/10 10:45:29;;;;;;;16.70;7.25;;;2.10;60.70;;;;;;4997043;28;20037;-75
2024/01/10 10:48:00;;;;;;;14.30;8.20;;;2.00;60.80;;;;;;4995256;28;20030;-75
2024/01/10 10:50:33;;;;;;;16.45;7.63;;;2.10;61.00;;;;;;4996838;28;20022;-76
2024/01/10 10:53:02;;;;;;;15.23;8.20;;;2.20;60.70;;;;;;4996690;28;20041;-74
2024/01/10 10:55:29;;;;;;;18.83;8.60;;;2.30;59.90;;;;;;4996590;28;20034;-75
2024/01/10 10:57:56;;;;;;;15.63;7.97;;;2.30;60.00;;;;;;4997144;28;20105;-75
2024/01/10 11:00:26;;;;;;;15.45;7.97;;;2.40;60.10;;;;;;4995067;28;20022;-75
2024/01/10 11:02:54;;;;;;;16.05;8.85;;;2.50;60.30;;;;;;4996474;28;20366;-76
2024/01/10 11:05:21;;;;;;;19.23;9.55;;;2.60;60.30;;;;;;4995153;28;20114;-75
2024/01/10 11:07:47;;;;;;;19.23;8.43;;;2.50;59.20;;;;;;4996043;28;20318;-75
2024/01/10 11:10:24;;;;;;;16.13;8.48;;;2.50;60.10;;;;;;4995011;28;20037;-75
2024/01/10 11:13:25;;;;;;;16.27;7.93;;;2.60;59.50;;;;;;4995331;28;20483;-75
2024/01/10 11:16:12;;;;;;;14.98;7.20;;;2.60;58.80;;;;;;4995523;28;20038;-75
2024/01/10 11:19:26;;;;;;;16.92;8.45;;;2.70;59.40;;;;;;4995806;28;20051;-75
2024/01/10 11:22:18;;;;;;;19.00;8.20;;;2.70;59.60;;;;;;4996145;28;20023;-74
2024/01/10 11:24:44;;;;;;;16.58;7.30;;;2.60;58.40;;;;;;4995779;28;20034;-75
2024/01/10 11:27:15;;;;;;;14.10;7.20;;;2.60;59.60;;;;;;4997099;28;20058;-75
2024/01/10 11:29:42;;;;;;;14.70;7.78;;;2.60;59.40;;;;;;4997346;28;20461;-76
2024/01/10 11:32:16;;;;;;;16.02;7.97;;;2.70;58.80;;;;;;4995421;28;20453;-74
2024/01/10 11:34:54;;;;;;;15.23;7.72;;;2.60;58.40;;;;;;4996732;28;20096;-73
2024/01/10 11:37:19;;;;;;;18.48;7.35;;;2.60;57.80;;;;;;4997213;28;20022;-73
2024/01/10 11:39:45;;;;;;;16.15;7.18;;;2.40;57.90;;;;;;4996873;28;20030;-74
2024/01/10 11:42:12;;;;;;;17.10;7.95;;;2.50;58.60;;;;;;4995263;28;20034;-74
2024/01/10 11:44:51;;;;;;;16.88;7.60;;;2.60;58.90;;;;;;4995990;28;20499;-74
2024/01/10 11:47:18;;;;;;;11.18;6.68;;;2.60;58.20;;;;;;4995542;28;20058;-75
2024/01/10 11:49:55;;;;;;;13.68;7.80;;;2.70;64.20;;;;;;4995628;28;20053;-74
2024/01/10 11:52:32;;;;;;;14.75;7.88;;;2.70;58.20;;;;;;4995307;28;20034;-74
2024/01/10 11:54:57;;;;;;;13.93;6.85;;;2.80;57.30;;;;;;4995874;28;20109;-74
2024/01/10 11:57:27;;;;;;;15.52;7.93;;;2.90;58.40;;;;;;4996457;28;20065;-73
2024/01/10 11:59:54;;;;;;;12.15;6.85;;;3.00;58.00;;;;;;4996357;28;20117;-77
2024/01/10 12:02:21;;;;;;;15.23;7.72;;;3.10;57.40;;;;;;4994213;28;20038;-74
2024/01/10 12:04:48;;;;;;;14.32;8.10;;;3.00;56.80;;;;;;4995628;28;20192;-80
2024/01/10 12:07:14;;;;;;;18.50;7.93;;;3.00;56.70;;;;;;4995763;28;20034;-78
2024/01/10 12:09:40;;;;;;;12.65;6.70;;;3.00;57.10;;;;;;4979723;28;20125;-78
2024/01/10 12:12:06;;;;;;;13.88;7.88;;;3.10;57.50;;;;;;4995179;28;20121;-75
2024/01/10 12:14:33;;;;;;;14.95;7.50;;;3.20;56.40;;;;;;4995311;28;20041;-74
2024/01/10 12:17:00;;;;;;;14.05;7.53;;;3.20;56.40;;;;;;4995333;28;20027;-74
2024/01/10 12:19:26;;;;;;;12.57;7.13;;;3.20;57.10;;;;;;4994785;28;20068;-75
2024/01/10 12:21:52;;;;;;;15.20;7.18;;;3.40;57.60;;;;;;4994942;28;20023;-75
2024/01/10 12:24:18;;;;;;;14.90;7.50;;;3.50;57.40;;;;;;4993726;28;20038;-74
2024/01/10 12:26:45;;;;;;;14.27;7.32;;;3.50;56.60;;;;;;4993144;28;20030;-73
2024/01/10 12:29:11;;;;;;;13.27;7.50;;;3.40;55.80;;;;;;4994156;28;20365;-76
2024/01/10 12:31:38;;;;;;;12.82;7.22;;;3.40;56.90;;;;;;4994440;28;20031;-76
2024/01/10 12:34:08;;;;;;;16.58;7.85;;;3.50;56.90;;;;;;4994532;28;20066;-74
2024/01/10 12:36:34;;;;;;;18.50;7.65;;;3.50;56.10;;;;;;4993695;28;20357;-75
2024/01/10 12:39:00;;;;;;;14.75;7.65;;;3.50;55.70;;;;;;4994796;28;20027;-74
2024/01/10 12:41:26;;;;;;;14.27;7.32;;;3.50;55.70;;;;;;4995090;28;20050;-73
2024/01/10 12:43:54;;;;;;;18.25;8.43;;;3.60;56.20;;;;;;4993253;28;20034;-73
2024/01/10 12:46:21;;;;;;;15.27;7.97;;;3.60;56.20;;;;;;4994393;28;20077;-73